Station Historical Data
Daily Summary for June 3, 2017 Units:  Metric    English   Both
« Previous Day
Next Day »
Daily Weekly Monthly Yearly Custom
  High: Low: Average:
Temperature: 31.2 °C 18.8 °C 24.3 °C
Dew Point: 21.2 °C 15.3 °C 18.2 °C
Humidity: 91% 41% 71%
Wind Speed: 1.6km/h 0km/h 0km/h
Wind Gust: 3.2km/h - -
Wind- - SW
Pressure: 1018.8 hPa 1014.4 hPa -
Precipitation: 0 mm    
Historical Graphs
 
 
Tabular Data for June 3, 2017
Time Temperature Dew Point Pressure Wind Wind Speed Wind Gust Humidity Rainfall Rate (Hourly) Conditions
00:00 21.5 °C 17.7 °C 1017.2 hPa Calm     79% 0 mm SCT
00:10 21.3 °C 17.7 °C 1017.2 hPa Calm     80% 0 mm SCT
00:20 21.1 °C 17.7 °C 1017.2 hPa Calm     81% 0 mm SCT
00:30 21.1 °C 17.9 °C 1017.2 hPa Calm     82% 0 mm SCT
00:40 21 °C 17.8 °C 1017.2 hPa Calm     82% 0 mm SCT
00:50 21 °C 18 °C 1017.2 hPa Calm     83% 0 mm SCT
01:00 21 °C 18 °C 1016.8 hPa Calm     83% 0 mm SCT
01:10 21 °C 18 °C 1016.8 hPa Calm     83% 0 mm SCT
01:20 20.9 °C 17.9 °C 1016.8 hPa Calm     83% 0 mm SCT
01:30 20.9 °C 18.1 °C 1016.8 hPa Calm     84% 0 mm SCT
01:40 20.9 °C 18.1 °C 1016.8 hPa Calm     84% 0 mm SCT
01:50 20.9 °C 18.1 °C 1016.8 hPa Calm     84% 0 mm SCT
02:00 20.9 °C 18.1 °C 1016.8 hPa Calm     84% 0 mm SCT
02:10 20.8 °C 18 °C 1016.5 hPa Calm     84% 0 mm SCT
02:20 20.7 °C 18.1 °C 1016.5 hPa Calm     85% 0 mm SCT
02:30 20.6 °C 17.8 °C 1016.5 hPa Calm     84% 0 mm SCT
02:40 20.3 °C 17.7 °C 1016.1 hPa Calm     85% 0 mm SCT
02:50 20.2 °C 17.6 °C 1016.1 hPa Calm     85% 0 mm SCT
03:00 20 °C 17.6 °C 1016.1 hPa Calm     86% 0 mm SCT
03:10 19.9 °C 17.5 °C 1016.1 hPa Calm     86% 0 mm SCT
03:20 19.8 °C 17.6 °C 1016.1 hPa Calm     87% 0 mm SCT
03:30 19.1 °C 16.7 °C 1016.1 hPa Calm     86% 0 mm SCT
03:40 19.1 °C 16.7 °C 1016.1 hPa Calm     86% 0 mm SCT
03:50 19.1 °C 16.7 °C 1016.1 hPa Calm     86% 0 mm SCT
04:00 19.1 °C 16.7 °C 1016.1 hPa Calm     86% 0 mm SCT
04:10 19.1 °C 16.7 °C 1016.1 hPa Calm     86% 0 mm SCT
04:20 19.1 °C 16.7 °C 1016.1 hPa Calm     86% 0 mm SCT
04:30 19.1 °C 16.7 °C 1016.1 hPa Calm     86% 0 mm SCT
04:40 19.1 °C 16.7 °C 1016.1 hPa Calm     86% 0 mm SCT
04:50 19.1 °C 16.7 °C 1016.1 hPa Calm     86% 0 mm SCT
05:00 19.1 °C 16.7 °C 1016.1 hPa Calm     86% 0 mm SCT
05:10 19.1 °C 16.7 °C 1016.1 hPa Calm     86% 0 mm SCT
05:20 19.1 °C 16.7 °C 1016.1 hPa Calm     86% 0 mm SCT
05:30 19.1 °C 16.7 °C 1016.5 hPa Calm     86% 0 mm SCT
05:40 19.1 °C 16.7 °C 1016.5 hPa Calm     86% 0 mm SCT
05:50 19.1 °C 16.7 °C 1016.5 hPa Calm     86% 0 mm SCT
06:00 19.1 °C 16.7 °C 1016.8 hPa Calm     86% 0 mm SCT
06:10 19.1 °C 16.7 °C 1016.8 hPa Calm     86% 0 mm SCT
06:20 19.1 °C 16.7 °C 1016.8 hPa Calm     86% 0 mm SCT
06:30 19.1 °C 16.7 °C 1017.2 hPa Calm     86% 0 mm SCT
06:40 19.1 °C 16.7 °C 1017.2 hPa Calm     86% 0 mm SCT
06:50 19.1 °C 16.7 °C 1017.5 hPa Calm     86% 0 mm SCT
07:00 19.1 °C 16.7 °C 1017.5 hPa Calm     86% 0 mm SCT
07:10 19.1 °C 16.7 °C 1017.8 hPa Calm     86% 0 mm SCT
07:20 19.1 °C 16.7 °C 1017.8 hPa Calm     86% 0 mm SCT
07:30 18.8 °C 17.3 °C 1017.8 hPa Calm     91% 0 mm SCT
07:40 19.1 °C 17.4 °C 1017.8 hPa Calm     90% 0 mm SCT
07:50 19.4 °C 17.7 °C 1018.2 hPa Calm     90% 0 mm SCT
08:00 19.7 °C 17.8 °C 1018.2 hPa Calm     89% 0 mm SCT
08:10 20.1 °C 18.2 °C 1018.2 hPa Calm     89% 0 mm SCT
08:20 20.4 °C 18.4 °C 1018.2 hPa Calm     88% 0 mm SCT
08:30 20.9 °C 18.7 °C 1018.2 hPa Calm     87% 0 mm SCT
08:40 21.4 °C 19.2 °C 1018.2 hPa Calm     87% 0 mm SCT
08:50 21.9 °C 19.1 °C 1018.5 hPa Calm   1.6 km/h 84% 0 mm SCT
09:00 22.4 °C 19.2 °C 1018.5 hPa Calm   1.6 km/h 82% 0 mm SCT
09:10 22.8 °C 19.6 °C 1018.5 hPa Calm     82% 0 mm SCT
09:20 23 °C 19.6 °C 1018.5 hPa Calm     81% 0 mm SCT
09:30 23.2 °C 19.9 °C 1018.5 hPa Calm     82% 0 mm SCT
09:40 23.4 °C 19.9 °C 1018.5 hPa Calm     81% 0 mm SCT
09:50 23.7 °C 20 °C 1018.5 hPa Calm     80% 0 mm SCT
10:00 23.9 °C 20.2 °C 1018.8 hPa Calm     80% 0 mm SCT
10:10 24 °C 20.3 °C 1018.5 hPa Calm     80% 0 mm SCT
10:20 24.2 °C 20.1 °C 1018.5 hPa Calm   1.6 km/h 78% 0 mm SCT
10:30 24.6 °C 20.3 °C 1018.5 hPa Calm   1.6 km/h 77% 0 mm SCT
10:40 24.9 °C 20.2 °C 1018.5 hPa Calm   1.6 km/h 75% 0 mm SCT
10:50 25.4 °C 20.6 °C 1018.2 hPa Calm   1.6 km/h 75% 0 mm SCT
11:00 25.7 °C 20.1 °C 1018.2 hPa Calm   1.6 km/h 71% 0 mm SCT
11:10 26.2 °C 21.2 °C 1018.2 hPa Calm   1.6 km/h 74% 0 mm SCT
11:20 26.7 °C 19.8 °C 1018.2 hPa Calm     66% 0 mm SCT
11:30 26.9 °C 20.1 °C 1018.2 hPa Calm   1.6 km/h 66% 0 mm SCT
11:40 27.1 °C 19.9 °C 1018.2 hPa Calm   1.6 km/h 65% 0 mm SCT
11:50 27.4 °C 19.3 °C 1018.2 hPa Calm   1.6 km/h 61% 0 mm SCT
12:00 27.6 °C 18.9 °C 1018.2 hPa Calm   1.6 km/h 59% 0 mm SCT
12:10 27.8 °C 19.8 °C 1018.2 hPa Calm   1.6 km/h 62% 0 mm SCT
12:20 27.8 °C 17.7 °C 1017.8 hPa Calm     54% 0 mm SCT
12:30 28.4 °C 19.1 °C 1017.8 hPa Calm   1.6 km/h 57% 0 mm SCT
12:40 29.2 °C 18.9 °C 1017.5 hPa Calm     54% 0 mm SCT
12:50 29.6 °C 16.8 °C 1017.5 hPa Calm   3.2 km/h 46% 0 mm SCT
13:00 30 °C 18.4 °C 1017.5 hPa Calm   3.2 km/h 50% 0 mm SCT
13:10 30.2 °C 16.9 °C 1017.2 hPa Calm   1.6 km/h 45% 0 mm SCT
13:20 30.9 °C 17.6 °C 1017.2 hPa Calm   1.6 km/h 45% 0 mm SCT
13:30 31.1 °C 18.1 °C 1016.8 hPa Calm   1.6 km/h 46% 0 mm SCT
13:40 30.8 °C 16.8 °C 1016.8 hPa Calm   3.2 km/h 43% 0 mm SCT
13:50 30.6 °C 16.6 °C 1016.8 hPa SW 1.6 km/h 3.2 km/h 43% 0 mm SCT
14:00 30.7 °C 17.8 °C 1016.5 hPa Calm   3.2 km/h 46% 0 mm SCT
14:10 31.2 °C 16.7 °C 1016.5 hPa Calm     42% 0 mm SCT
14:20 30.9 °C 16.2 °C 1016.5 hPa Calm   1.6 km/h 41% 0 mm SCT
14:30 30.9 °C 16.1 °C 1016.1 hPa Calm   1.6 km/h 41% 0 mm SCT
14:40 30.4 °C 15.7 °C 1016.1 hPa Calm   3.2 km/h 41% 0 mm SCT
14:50 30.3 °C 15.6 °C 1016.1 hPa Calm   1.6 km/h 41% 0 mm SCT
15:00 30 °C 15.7 °C 1016.1 hPa Calm     42% 0 mm SCT
15:10 29.3 °C 16.2 °C 1015.8 hPa Calm     45% 0 mm SCT
15:20 29.4 °C 17.9 °C 1015.8 hPa Calm     50% 0 mm SCT
15:30 29.6 °C 15.3 °C 1015.8 hPa Calm     42% 0 mm SCT
15:40 29.6 °C 16.4 °C 1015.5 hPa Calm     45% 0 mm SCT
15:50 29.9 °C 16.7 °C 1015.5 hPa Calm     45% 0 mm SCT
16:00 29.8 °C 17.9 °C 1015.1 hPa Calm     49% 0 mm SCT
16:10 29.7 °C 18.8 °C 1015.1 hPa Calm     52% 0 mm SCT
16:20 29.3 °C 18.8 °C 1015.1 hPa Calm     53% 0 mm SCT
16:40 29.1 °C 18.2 °C 1015.1 hPa Calm     52% 0 mm SCT
16:50 29.3 °C 18.1 °C 1014.8 hPa Calm     51% 0 mm SCT
17:00 29.4 °C 17.3 °C 1014.8 hPa Calm     48% 0 mm SCT
17:10 29.7 °C 18.4 °C 1014.8 hPa Calm   1.6 km/h 51% 0 mm SCT
17:20 29.5 °C 18.6 °C 1014.8 hPa Calm   1.6 km/h 52% 0 mm SCT
17:30 29.6 °C 18.1 °C 1014.4 hPa Calm   1.6 km/h 50% 0 mm SCT
17:40 29.3 °C 18.8 °C 1014.4 hPa Calm   1.6 km/h 53% 0 mm SCT
17:50 29.3 °C 19.3 °C 1014.4 hPa Calm   1.6 km/h 55% 0 mm SCT
18:00 29.3 °C 18.4 °C 1014.4 hPa Calm   1.6 km/h 52% 0 mm SCT
18:10 28.9 °C 18.1 °C 1014.4 hPa Calm   1.6 km/h 52% 0 mm SCT
18:20 28.7 °C 18.5 °C 1014.4 hPa Calm   1.6 km/h 54% 0 mm SCT
18:30 28.3 °C 17.8 °C 1014.4 hPa Calm   1.6 km/h 53% 0 mm SCT
18:40 28.2 °C 18.3 °C 1014.4 hPa Calm     55% 0 mm SCT
18:50 27.9 °C 18.1 °C 1014.4 hPa Calm   1.6 km/h 55% 0 mm SCT
19:00 27.9 °C 18.1 °C 1014.4 hPa Calm     55% 0 mm SCT
19:10 28 °C 18.4 °C 1014.4 hPa Calm     56% 0 mm SCT
19:20 27.9 °C 19.2 °C 1014.4 hPa Calm     59% 0 mm SCT
19:30 27.8 °C 19.1 °C 1014.4 hPa Calm     59% 0 mm SCT
19:40 27.6 °C 19.6 °C 1014.8 hPa Calm   1.6 km/h 62% 0 mm SCT
19:50 27.3 °C 19.9 °C 1015.1 hPa Calm   1.6 km/h 64% 0 mm SCT
20:00 26.8 °C 19.5 °C 1015.5 hPa Calm   1.6 km/h 64% 0 mm SCT
20:10 26.4 °C 19.3 °C 1015.5 hPa Calm   1.6 km/h 65% 0 mm SCT
20:20 26.1 °C 19.2 °C 1015.5 hPa Calm   1.6 km/h 66% 0 mm SCT
20:30 25.7 °C 19.1 °C 1015.5 hPa Calm     67% 0 mm SCT
20:40 25.4 °C 19.1 °C 1015.5 hPa Calm     68% 0 mm SCT
20:50 25.1 °C 18.9 °C 1015.5 hPa Calm     69% 0 mm SCT
21:00 24.8 °C 18.9 °C 1015.8 hPa Calm     70% 0 mm SCT
21:10 24.6 °C 18.9 °C 1015.8 hPa Calm     71% 0 mm SCT
21:20 24.4 °C 19 °C 1015.8 hPa Calm     72% 0 mm SCT
21:30 24.3 °C 18.9 °C 1015.8 hPa Calm     72% 0 mm SCT
21:40 24.1 °C 18.9 °C 1015.8 hPa Calm     73% 0 mm SCT
21:50 23.9 °C 18.8 °C 1015.8 hPa Calm     73% 0 mm SCT
22:00 23.7 °C 18.8 °C 1015.8 hPa Calm     74% 0 mm SCT
22:10 23.6 °C 18.9 °C 1015.8 hPa Calm     75% 0 mm SCT
22:20 23.5 °C 19 °C 1016.1 hPa Calm     76% 0 mm SCT
22:30 23.5 °C 19 °C 1016.1 hPa Calm     76% 0 mm SCT
22:40 23.5 °C 19.1 °C 1016.1 hPa Calm     76% 0 mm SCT
22:50 23.4 °C 19 °C 1016.1 hPa Calm     76% 0 mm SCT
23:00 23.4 °C 19.2 °C 1016.1 hPa Calm     77% 0 mm SCT
23:10 23.3 °C 19.1 °C 1016.1 hPa Calm     77% 0 mm SCT
23:20 23.2 °C 19.2 °C 1016.1 hPa Calm     78% 0 mm SCT
23:30 23.2 °C 19.1 °C 1016.1 hPa Calm     78% 0 mm SCT
23:40 23.1 °C 19.2 °C 1016.1 hPa Calm     79% 0 mm SCT
Piedmont Bend
Compliments of Weather Underground - 4 mb